sensor_id;sensor_type;location;lat;lon;timestamp;pressure;altitude;pressure_sealevel;temperature;humidity
52719;BME280;38616;42.140;24.760;2024-02-21T00:01:39;100355.22;;;8.77;68.06
52719;BME280;38616;42.140;24.760;2024-02-21T00:04:04;100346.78;;;8.74;68.87
52719;BME280;38616;42.140;24.760;2024-02-21T00:06:31;100349.81;;;8.77;68.94
52719;BME280;38616;42.140;24.760;2024-02-21T00:08:56;100350.50;;;8.67;69.55
52719;BME280;38616;42.140;24.760;2024-02-21T00:11:22;100353.91;;;8.80;69.33
52719;BME280;38616;42.140;24.760;2024-02-21T00:13:47;100349.22;;;8.75;69.92
52719;BME280;38616;42.140;24.760;2024-02-21T00:16:13;100346.00;;;8.56;70.26
52719;BME280;38616;42.140;24.760;2024-02-21T00:18:40;100343.09;;;8.63;70.19
52719;BME280;38616;42.140;24.760;2024-02-21T00:21:08;100344.81;;;8.69;70.25
52719;BME280;38616;42.140;24.760;2024-02-21T00:23:34;100339.78;;;8.78;69.91
52719;BME280;38616;42.140;24.760;2024-02-21T00:25:59;100339.16;;;8.70;69.86
52719;BME280;38616;42.140;24.760;2024-02-21T00:28:25;100349.00;;;8.60;70.71
52719;BME280;38616;42.140;24.760;2024-02-21T00:30:50;100341.72;;;8.60;70.46
52719;BME280;38616;42.140;24.760;2024-02-21T00:33:18;100344.66;;;8.58;70.34
52719;BME280;38616;42.140;24.760;2024-02-21T00:35:44;100333.66;;;8.65;70.49
52719;BME280;38616;42.140;24.760;2024-02-21T00:38:09;100337.25;;;8.71;69.95
52719;BME280;38616;42.140;24.760;2024-02-21T00:40:35;100333.66;;;8.65;70.67
52719;BME280;38616;42.140;24.760;2024-02-21T00:43:00;100328.19;;;8.60;70.78
52719;BME280;38616;42.140;24.760;2024-02-21T00:45:26;100330.47;;;8.51;71.32
52719;BME280;38616;42.140;24.760;2024-02-21T00:47:51;100325.78;;;8.64;70.65
52719;BME280;38616;42.140;24.760;2024-02-21T00:50:17;100322.19;;;8.58;70.46
52719;BME280;38616;42.140;24.760;2024-02-21T00:52:43;100321.75;;;8.66;70.40
52719;BME280;38616;42.140;24.760;2024-02-21T00:55:08;100319.78;;;8.62;69.61
52719;BME280;38616;42.140;24.760;2024-02-21T00:57:34;100317.34;;;8.60;69.79
52719;BME280;38616;42.140;24.760;2024-02-21T01:00:00;100312.63;;;8.72;69.32
52719;BME280;38616;42.140;24.760;2024-02-21T01:02:26;100313.22;;;8.75;69.57
52719;BME280;38616;42.140;24.760;2024-02-21T01:04:51;100312.81;;;8.66;69.58
52719;BME280;38616;42.140;24.760;2024-02-21T01:07:17;100302.66;;;8.56;69.78
52719;BME280;38616;42.140;24.760;2024-02-21T01:09:44;100310.44;;;8.52;69.83
52719;BME280;38616;42.140;24.760;2024-02-21T01:12:09;100303.28;;;8.46;70.45
52719;BME280;38616;42.140;24.760;2024-02-21T01:14:35;100299.50;;;8.47;69.98
52719;BME280;38616;42.140;24.760;2024-02-21T01:17:00;100300.53;;;8.58;69.78
52719;BME280;38616;42.140;24.760;2024-02-21T01:19:26;100303.88;;;8.65;69.89
52719;BME280;38616;42.140;24.760;2024-02-21T01:21:53;100302.16;;;8.59;69.46
52719;BME280;38616;42.140;24.760;2024-02-21T01:24:19;100304.44;;;8.67;69.41
52719;BME280;38616;42.140;24.760;2024-02-21T01:26:44;100299.13;;;8.55;69.86
52719;BME280;38616;42.140;24.760;2024-02-21T01:29:10;100296.41;;;8.55;69.47
52719;BME280;38616;42.140;24.760;2024-02-21T01:31:35;100290.91;;;8.67;69.63
52719;BME280;38616;42.140;24.760;2024-02-21T01:34:01;100293.84;;;8.66;69.24
52719;BME280;38616;42.140;24.760;2024-02-21T01:36:26;100289.25;;;8.66;69.44
52719;BME280;38616;42.140;24.760;2024-02-21T01:38:52;100285.41;;;8.62;69.33
52719;BME280;38616;42.140;24.760;2024-02-21T01:41:17;100283.00;;;8.66;69.89
52719;BME280;38616;42.140;24.760;2024-02-21T01:43:44;100286.06;;;8.69;69.47
52719;BME280;38616;42.140;24.760;2024-02-21T01:46:10;100291.84;;;8.78;68.73
52719;BME280;38616;42.140;24.760;2024-02-21T01:48:35;100282.63;;;9.01;68.32
52719;BME280;38616;42.140;24.760;2024-02-21T01:51:03;100283.63;;;8.95;68.38
52719;BME280;38616;42.140;24.760;2024-02-21T01:53:32;100281.00;;;9.00;68.37
52719;BME280;38616;42.140;24.760;2024-02-21T01:56:01;100285.78;;;8.93;68.45
52719;BME280;38616;42.140;24.760;2024-02-21T01:58:28;100289.06;;;8.95;67.88
52719;BME280;38616;42.140;24.760;2024-02-21T02:00:56;100278.09;;;8.85;68.25
52719;BME280;38616;42.140;24.760;2024-02-21T02:03:21;100279.84;;;8.96;67.34
52719;BME280;38616;42.140;24.760;2024-02-21T02:05:48;100286.63;;;8.94;66.51
52719;BME280;38616;42.140;24.760;2024-02-21T02:08:17;100276.66;;;8.99;67.22
52719;BME280;38616;42.140;24.760;2024-02-21T02:10:43;100279.03;;;9.18;66.77
52719;BME280;38616;42.140;24.760;2024-02-21T02:13:09;100272.97;;;9.11;66.50
52719;BME280;38616;42.140;24.760;2024-02-21T02:15:42;100275.69;;;9.11;66.87
52719;BME280;38616;42.140;24.760;2024-02-21T02:18:08;100276.59;;;9.16;66.86
52719;BME280;38616;42.140;24.760;2024-02-21T02:20:34;100278.56;;;9.26;66.36
52719;BME280;38616;42.140;24.760;2024-02-21T02:23:06;100276.13;;;9.25;66.88
52719;BME280;38616;42.140;24.760;2024-02-21T02:25:33;100272.41;;;9.09;67.13
52719;BME280;38616;42.140;24.760;2024-02-21T02:27:58;100272.25;;;9.15;66.86
52719;BME280;38616;42.140;24.760;2024-02-21T02:30:24;100271.63;;;9.08;67.86
52719;BME280;38616;42.140;24.760;2024-02-21T02:32:49;100272.91;;;9.06;67.37
52719;BME280;38616;42.140;24.760;2024-02-21T02:35:15;100280.44;;;9.21;67.10
52719;BME280;38616;42.140;24.760;2024-02-21T02:37:47;100278.22;;;8.95;67.67
52719;BME280;38616;42.140;24.760;2024-02-21T02:40:13;100281.13;;;8.66;68.84
52719;BME280;38616;42.140;24.760;2024-02-21T02:42:39;100279.34;;;8.55;70.01
52719;BME280;38616;42.140;24.760;2024-02-21T02:45:04;100277.84;;;8.47;70.13
52719;BME280;38616;42.140;24.760;2024-02-21T02:47:30;100277.63;;;8.49;70.67
52719;BME280;38616;42.140;24.760;2024-02-21T02:49:56;100277.53;;;8.61;70.63
52719;BME280;38616;42.140;24.760;2024-02-21T02:52:21;100275.72;;;8.66;70.59
52719;BME280;38616;42.140;24.760;2024-02-21T02:54:47;100279.50;;;8.65;70.56
52719;BME280;38616;42.140;24.760;2024-02-21T02:57:17;100282.28;;;8.70;70.45
52719;BME280;38616;42.140;24.760;2024-02-21T02:59:48;100284.91;;;8.65;70.42
52719;BME280;38616;42.140;24.760;2024-02-21T03:02:13;100277.91;;;8.92;69.79
52719;BME280;38616;42.140;24.760;2024-02-21T03:04:39;100280.81;;;8.85;69.36
52719;BME280;38616;42.140;24.760;2024-02-21T03:07:05;100278.22;;;8.73;69.64
52719;BME280;38616;42.140;24.760;2024-02-21T03:09:31;100279.44;;;8.82;69.46
52719;BME280;38616;42.140;24.760;2024-02-21T03:11:57;100284.28;;;8.80;69.48
52719;BME280;38616;42.140;24.760;2024-02-21T03:14:30;100285.28;;;8.74;69.22
52719;BME280;38616;42.140;24.760;2024-02-21T03:16:56;100283.34;;;8.69;69.69
52719;BME280;38616;42.140;24.760;2024-02-21T03:19:25;100284.66;;;8.67;70.05
52719;BME280;38616;42.140;24.760;2024-02-21T03:21:54;100274.31;;;8.64;70.40
52719;BME280;38616;42.140;24.760;2024-02-21T03:24:20;100273.94;;;8.77;70.19
52719;BME280;38616;42.140;24.760;2024-02-21T03:26:46;100277.66;;;8.71;70.21
52719;BME280;38616;42.140;24.760;2024-02-21T03:29:14;100270.66;;;8.75;70.05
52719;BME280;38616;42.140;24.760;2024-02-21T03:31:40;100274.78;;;8.78;70.52
52719;BME280;38616;42.140;24.760;2024-02-21T03:34:05;100272.66;;;8.85;69.89
52719;BME280;38616;42.140;24.760;2024-02-21T03:36:31;100264.66;;;8.95;69.97
52719;BME280;38616;42.140;24.760;2024-02-21T03:38:58;100268.69;;;9.15;68.89
52719;BME280;38616;42.140;24.760;2024-02-21T03:41:23;100256.47;;;9.12;68.49
52719;BME280;38616;42.140;24.760;2024-02-21T03:43:49;100267.88;;;8.92;68.72
52719;BME280;38616;42.140;24.760;2024-02-21T03:46:14;100267.59;;;8.89;69.30
52719;BME280;38616;42.140;24.760;2024-02-21T03:48:40;100264.38;;;8.92;69.39
52719;BME280;38616;42.140;24.760;2024-02-21T03:51:06;100262.41;;;8.87;69.69
52719;BME280;38616;42.140;24.760;2024-02-21T03:53:32;100258.56;;;9.05;69.04
52719;BME280;38616;42.140;24.760;2024-02-21T03:55:57;100262.03;;;9.00;69.28
52719;BME280;38616;42.140;24.760;2024-02-21T03:58:28;100265.25;;;8.97;68.49
52719;BME280;38616;42.140;24.760;2024-02-21T04:00:53;100266.88;;;8.98;69.17
52719;BME280;38616;42.140;24.760;2024-02-21T04:03:19;100267.50;;;9.06;68.88
52719;BME280;38616;42.140;24.760;2024-02-21T04:05:45;100271.78;;;9.01;68.86
52719;BME280;38616;42.140;24.760;2024-02-21T04:08:11;100275.69;;;9.11;69.08
52719;BME280;38616;42.140;24.760;2024-02-21T04:10:36;100264.72;;;9.00;69.10
52719;BME280;38616;42.140;24.760;2024-02-21T04:13:02;100276.66;;;8.99;68.61
52719;BME280;38616;42.140;24.760;2024-02-21T04:15:28;100269.94;;;9.29;68.19
52719;BME280;38616;42.140;24.760;2024-02-21T04:17:53;100282.97;;;9.05;68.61
52719;BME280;38616;42.140;24.760;2024-02-21T04:20:19;100281.69;;;8.91;69.20
52719;BME280;38616;42.140;24.760;2024-02-21T04:22:44;100273.94;;;8.99;68.02
52719;BME280;38616;42.140;24.760;2024-02-21T04:25:10;100284.84;;;8.26;69.93
52719;BME280;38616;42.140;24.760;2024-02-21T04:27:38;100291.50;;;8.01;71.64
52719;BME280;38616;42.140;24.760;2024-02-21T04:30:05;100286.00;;;7.96;70.92
52719;BME280;38616;42.140;24.760;2024-02-21T04:32:30;100291.19;;;7.34;73.25
52719;BME280;38616;42.140;24.760;2024-02-21T04:34:56;100288.81;;;7.09;73.63
52719;BME280;38616;42.140;24.760;2024-02-21T04:37:21;100287.63;;;7.17;73.59
52719;BME280;38616;42.140;24.760;2024-02-21T04:39:48;100303.00;;;6.63;74.80
52719;BME280;38616;42.140;24.760;2024-02-21T04:42:14;100302.84;;;6.94;74.67
52719;BME280;38616;42.140;24.760;2024-02-21T04:44:40;100307.66;;;6.92;74.07
52719;BME280;38616;42.140;24.760;2024-02-21T04:47:08;100305.59;;;7.11;73.50
52719;BME280;38616;42.140;24.760;2024-02-21T04:49:34;100291.59;;;7.26;72.84
52719;BME280;38616;42.140;24.760;2024-02-21T04:52:00;100306.00;;;7.03;73.07
52719;BME280;38616;42.140;24.760;2024-02-21T04:54:26;100309.25;;;6.52;75.58
52719;BME280;38616;42.140;24.760;2024-02-21T04:56:51;100316.47;;;5.92;74.12
52719;BME280;38616;42.140;24.760;2024-02-21T04:59:17;100317.81;;;5.71;74.90
52719;BME280;38616;42.140;24.760;2024-02-21T05:01:43;100326.94;;;5.39;76.30
52719;BME280;38616;42.140;24.760;2024-02-21T05:04:08;100323.31;;;6.06;78.10
52719;BME280;38616;42.140;24.760;2024-02-21T05:06:40;100321.69;;;6.53;77.63
52719;BME280;38616;42.140;24.760;2024-02-21T05:09:07;100320.34;;;6.91;75.93
52719;BME280;38616;42.140;24.760;2024-02-21T05:11:36;100320.34;;;6.91;74.67
52719;BME280;38616;42.140;24.760;2024-02-21T05:14:03;100322.91;;;6.98;74.69
52719;BME280;38616;42.140;24.760;2024-02-21T05:16:29;100327.19;;;7.23;73.55
52719;BME280;38616;42.140;24.760;2024-02-21T05:18:55;100337.03;;;7.58;72.44
52719;BME280;38616;42.140;24.760;2024-02-21T05:21:23;100327.69;;;7.95;71.34
52719;BME280;38616;42.140;24.760;2024-02-21T05:23:49;100332.00;;;7.96;71.13
52719;BME280;38616;42.140;24.760;2024-02-21T05:26:24;100323.84;;;8.08;69.79
52719;BME280;38616;42.140;24.760;2024-02-21T05:28:49;100321.34;;;8.06;70.40
52719;BME280;38616;42.140;24.760;2024-02-21T05:31:16;100327.13;;;7.93;70.31
52719;BME280;38616;42.140;24.760;2024-02-21T05:33:43;100328.13;;;6.76;71.49
52719;BME280;38616;42.140;24.760;2024-02-21T05:36:08;100334.25;;;6.47;73.35
52719;BME280;38616;42.140;24.760;2024-02-21T05:38:34;100333.88;;;6.44;74.59
52719;BME280;38616;42.140;24.760;2024-02-21T05:41:00;100346.50;;;7.15;75.25
52719;BME280;38616;42.140;24.760;2024-02-21T05:43:26;100344.31;;;7.41;73.39
52719;BME280;38616;42.140;24.760;2024-02-21T05:45:51;100345.72;;;7.60;72.52
52719;BME280;38616;42.140;24.760;2024-02-21T05:48:17;100351.00;;;7.67;72.87
52719;BME280;38616;42.140;24.760;2024-02-21T05:50:42;100350.22;;;8.01;71.16
52719;BME280;38616;42.140;24.760;2024-02-21T05:53:08;100355.38;;;8.02;70.95
52719;BME280;38616;42.140;24.760;2024-02-21T05:55:35;100353.09;;;8.28;70.24
52719;BME280;38616;42.140;24.760;2024-02-21T05:58:00;100358.13;;;8.36;69.70
52719;BME280;38616;42.140;24.760;2024-02-21T06:00:26;100350.56;;;8.55;68.67
52719;BME280;38616;42.140;24.760;2024-02-21T06:02:51;100347.38;;;8.41;68.79
52719;BME280;38616;42.140;24.760;2024-02-21T06:05:17;100354.25;;;8.32;69.14
52719;BME280;38616;42.140;24.760;2024-02-21T06:07:42;100358.00;;;8.48;68.61
52719;BME280;38616;42.140;24.760;2024-02-21T06:10:09;100362.38;;;8.32;68.82
52719;BME280;38616;42.140;24.760;2024-02-21T06:12:34;100358.97;;;8.54;69.00
52719;BME280;38616;42.140;24.760;2024-02-21T06:15:00;100363.03;;;8.74;68.13
52719;BME280;38616;42.140;24.760;2024-02-21T06:17:25;100362.81;;;8.58;67.98
52719;BME280;38616;42.140;24.760;2024-02-21T06:19:51;100358.25;;;8.81;67.45
52719;BME280;38616;42.140;24.760;2024-02-21T06:22:16;100374.06;;;8.89;66.73
52719;BME280;38616;42.140;24.760;2024-02-21T06:24:43;100374.28;;;8.65;67.46
52719;BME280;38616;42.140;24.760;2024-02-21T06:27:08;100369.94;;;8.64;67.82
52719;BME280;38616;42.140;24.760;2024-02-21T06:29:34;100380.06;;;8.91;67.10
52719;BME280;38616;42.140;24.760;2024-02-21T06:32:00;100381.38;;;8.89;67.36
52719;BME280;38616;42.140;24.760;2024-02-21T06:34:26;100370.44;;;9.00;66.80
52719;BME280;38616;42.140;24.760;2024-02-21T06:36:51;100374.72;;;8.96;67.05
52719;BME280;38616;42.140;24.760;2024-02-21T06:39:18;100370.84;;;8.92;67.42
52719;BME280;38616;42.140;24.760;2024-02-21T06:41:44;100379.88;;;8.98;68.07
52719;BME280;38616;42.140;24.760;2024-02-21T06:44:09;100379.19;;;9.08;67.16
52719;BME280;38616;42.140;24.760;2024-02-21T06:46:35;100379.69;;;9.05;67.11
52719;BME280;38616;42.140;24.760;2024-02-21T06:49:01;100376.81;;;9.11;66.84
52719;BME280;38616;42.140;24.760;2024-02-21T06:51:28;100374.97;;;9.17;66.50
52719;BME280;38616;42.140;24.760;2024-02-21T06:53:54;100378.75;;;9.16;66.58
52719;BME280;38616;42.140;24.760;2024-02-21T06:56:22;100376.38;;;9.20;65.90
52719;BME280;38616;42.140;24.760;2024-02-21T06:58:52;100385.88;;;9.22;65.34
52719;BME280;38616;42.140;24.760;2024-02-21T07:01:17;100383.53;;;9.09;65.33
52719;BME280;38616;42.140;24.760;2024-02-21T07:03:43;100387.47;;;9.18;65.09
52719;BME280;38616;42.140;24.760;2024-02-21T07:06:08;100380.03;;;9.08;65.18
52719;BME280;38616;42.140;24.760;2024-02-21T07:08:34;100388.16;;;9.30;64.84
52719;BME280;38616;42.140;24.760;2024-02-21T07:11:00;100382.75;;;9.30;64.55
52719;BME280;38616;42.140;24.760;2024-02-21T07:13:25;100380.34;;;9.12;64.36
52719;BME280;38616;42.140;24.760;2024-02-21T07:15:51;100382.47;;;9.10;65.45
52719;BME280;38616;42.140;24.760;2024-02-21T07:18:16;100383.91;;;8.95;64.89
52719;BME280;38616;42.140;24.760;2024-02-21T07:20:44;100378.53;;;8.78;65.66
52719;BME280;38616;42.140;24.760;2024-02-21T07:23:10;100375.44;;;8.69;65.01
52719;BME280;38616;42.140;24.760;2024-02-21T07:25:35;100389.31;;;8.56;65.19
52719;BME280;38616;42.140;24.760;2024-02-21T07:28:01;100378.16;;;8.69;64.73
52719;BME280;38616;42.140;24.760;2024-02-21T07:30:26;100386.34;;;8.40;65.21
52719;BME280;38616;42.140;24.760;2024-02-21T07:32:52;100385.22;;;8.70;64.98
52719;BME280;38616;42.140;24.760;2024-02-21T07:35:18;100377.97;;;8.76;65.38
52719;BME280;38616;42.140;24.760;2024-02-21T07:37:43;100389.13;;;8.80;65.50
52719;BME280;38616;42.140;24.760;2024-02-21T07:40:13;100380.94;;;8.75;64.83
52719;BME280;38616;42.140;24.760;2024-02-21T07:42:39;100380.38;;;8.95;64.75
52719;BME280;38616;42.140;24.760;2024-02-21T07:45:05;100381.25;;;9.18;64.70
52719;BME280;38616;42.140;24.760;2024-02-21T07:47:31;100385.09;;;9.22;63.95
52719;BME280;38616;42.140;24.760;2024-02-21T07:49:56;100384.56;;;9.47;63.36
52719;BME280;38616;42.140;24.760;2024-02-21T07:52:22;100384.19;;;9.38;63.04
52719;BME280;38616;42.140;24.760;2024-02-21T07:54:47;100388.31;;;9.19;62.30
52719;BME280;38616;42.140;24.760;2024-02-21T07:57:13;100391.88;;;9.02;64.20
52719;BME280;38616;42.140;24.760;2024-02-21T07:59:38;100384.75;;;9.40;63.94
52719;BME280;38616;42.140;24.760;2024-02-21T08:02:04;100386.41;;;9.19;63.79
52719;BME280;38616;42.140;24.760;2024-02-21T08:04:32;100391.31;;;9.22;64.31
52719;BME280;38616;42.140;24.760;2024-02-21T08:06:57;100378.38;;;9.29;63.77
52719;BME280;38616;42.140;24.760;2024-02-21T08:09:27;100384.63;;;9.52;63.45
52719;BME280;38616;42.140;24.760;2024-02-21T08:11:54;100386.59;;;9.35;62.44
52719;BME280;38616;42.140;24.760;2024-02-21T08:14:20;100385.59;;;9.41;62.68
52719;BME280;38616;42.140;24.760;2024-02-21T08:16:45;100388.31;;;9.68;62.64
52719;BME280;38616;42.140;24.760;2024-02-21T08:19:11;100379.41;;;10.00;61.23
52719;BME280;38616;42.140;24.760;2024-02-21T08:21:36;100383.34;;;9.87;61.62
52719;BME280;38616;42.140;24.760;2024-02-21T08:24:02;100387.63;;;10.05;61.42
52719;BME280;38616;42.140;24.760;2024-02-21T08:26:28;100384.63;;;10.07;61.05
52719;BME280;38616;42.140;24.760;2024-02-21T08:28:56;100387.31;;;9.74;61.40
52719;BME280;38616;42.140;24.760;2024-02-21T08:31:25;100384.38;;;9.81;61.30
52719;BME280;38616;42.140;24.760;2024-02-21T08:33:59;100392.88;;;10.17;60.59
52719;BME280;38616;42.140;24.760;2024-02-21T08:36:30;100389.09;;;10.51;59.71
52719;BME280;38616;42.140;24.760;2024-02-21T08:38:56;100383.78;;;10.67;58.23
52719;BME280;38616;42.140;24.760;2024-02-21T08:41:23;100396.91;;;10.42;57.56
52719;BME280;38616;42.140;24.760;2024-02-21T08:43:50;100390.38;;;10.11;57.69
52719;BME280;38616;42.140;24.760;2024-02-21T08:46:16;100394.13;;;10.04;57.61
52719;BME280;38616;42.140;24.760;2024-02-21T08:48:43;100387.81;;;9.99;58.45
52719;BME280;38616;42.140;24.760;2024-02-21T08:51:08;100396.38;;;10.13;58.29
52719;BME280;38616;42.140;24.760;2024-02-21T08:53:34;100398.38;;;9.95;58.88
52719;BME280;38616;42.140;24.760;2024-02-21T08:55:59;100397.66;;;9.78;59.60
52719;BME280;38616;42.140;24.760;2024-02-21T08:58:25;100397.75;;;9.88;59.88
52719;BME280;38616;42.140;24.760;2024-02-21T09:00:52;100402.00;;;10.06;59.96
52719;BME280;38616;42.140;24.760;2024-02-21T09:03:17;100407.06;;;10.25;59.27
52719;BME280;38616;42.140;24.760;2024-02-21T09:05:45;100395.78;;;9.83;59.28
52719;BME280;38616;42.140;24.760;2024-02-21T09:08:11;100403.19;;;9.88;59.80
52719;BME280;38616;42.140;24.760;2024-02-21T09:10:36;100402.56;;;9.81;60.02
52719;BME280;38616;42.140;24.760;2024-02-21T09:13:03;100401.31;;;9.66;60.27
52719;BME280;38616;42.140;24.760;2024-02-21T09:15:29;100400.72;;;9.86;59.93
52719;BME280;38616;42.140;24.760;2024-02-21T09:17:54;100395.44;;;10.02;59.49
52719;BME280;38616;42.140;24.760;2024-02-21T09:20:20;100395.91;;;9.94;59.69
52719;BME280;38616;42.140;24.760;2024-02-21T09:22:45;100395.81;;;10.11;59.93
52719;BME280;38616;42.140;24.760;2024-02-21T09:25:11;100394.78;;;10.49;58.07
52719;BME280;38616;42.140;24.760;2024-02-21T09:27:38;100374.94;;;10.49;57.57
52719;BME280;38616;42.140;24.760;2024-02-21T09:30:04;100378.38;;;10.72;57.35
52719;BME280;38616;42.140;24.760;2024-02-21T09:32:30;100378.22;;;10.94;56.90
52719;BME280;38616;42.140;24.760;2024-02-21T09:34:56;100368.81;;;10.69;56.93
52719;BME280;38616;42.140;24.760;2024-02-21T09:37:21;100384.50;;;10.52;57.52
52719;BME280;38616;42.140;24.760;2024-02-21T09:39:49;100374.91;;;10.87;57.11
52719;BME280;38616;42.140;24.760;2024-02-21T09:42:20;100376.91;;;11.02;56.56
52719;BME280;38616;42.140;24.760;2024-02-21T09:44:46;100368.56;;;11.19;55.51
52719;BME280;38616;42.140;24.760;2024-02-21T09:47:19;100375.59;;;11.09;55.35
52719;BME280;38616;42.140;24.760;2024-02-21T09:49:47;100368.38;;;11.41;54.60
52719;BME280;38616;42.140;24.760;2024-02-21T09:52:14;100368.38;;;11.41;53.86
52719;BME280;38616;42.140;24.760;2024-02-21T09:54:41;100366.53;;;11.67;53.29
52719;BME280;38616;42.140;24.760;2024-02-21T09:57:09;100369.72;;;11.38;52.47
52719;BME280;38616;42.140;24.760;2024-02-21T09:59:35;100357.47;;;11.41;52.90
52719;BME280;38616;42.140;24.760;2024-02-21T10:02:00;100359.19;;;11.63;52.22
52719;BME280;38616;42.140;24.760;2024-02-21T10:04:27;100361.25;;;11.35;52.43
52719;BME280;38616;42.140;24.760;2024-02-21T10:06:56;100357.50;;;11.51;52.39
52719;BME280;38616;42.140;24.760;2024-02-21T10:09:26;100358.00;;;11.38;51.36
52719;BME280;38616;42.140;24.760;2024-02-21T10:11:55;100353.38;;;11.28;51.49
52719;BME280;38616;42.140;24.760;2024-02-21T10:14:21;100354.09;;;11.03;51.85
52719;BME280;38616;42.140;24.760;2024-02-21T10:16:57;100342.16;;;11.14;51.75
52719;BME280;38616;42.140;24.760;2024-02-21T10:19:26;100340.31;;;11.30;51.44
52719;BME280;38616;42.140;24.760;2024-02-21T10:22:07;100330.59;;;11.65;50.27
52719;BME280;38616;42.140;24.760;2024-02-21T10:24:36;100333.31;;;11.60;50.55
52719;BME280;38616;42.140;24.760;2024-02-21T10:27:09;100324.63;;;11.84;50.27
52719;BME280;38616;42.140;24.760;2024-02-21T10:29:36;100316.50;;;12.15;49.25
52719;BME280;38616;42.140;24.760;2024-02-21T10:32:14;100306.97;;;12.07;49.62
52719;BME280;38616;42.140;24.760;2024-02-21T10:34:43;100301.53;;;12.02;49.91
52719;BME280;38616;42.140;24.760;2024-02-21T10:37:11;100298.53;;;12.24;49.38
52719;BME280;38616;42.140;24.760;2024-02-21T10:39:41;100287.88;;;12.33;48.92
52719;BME280;38616;42.140;24.760;2024-02-21T10:42:10;100291.38;;;12.44;47.71
52719;BME280;38616;42.140;24.760;2024-02-21T10:44:40;100277.84;;;12.23;47.45
52719;BME280;38616;42.140;24.760;2024-02-21T10:47:10;100291.94;;;12.41;46.95
52719;BME280;38616;42.140;24.760;2024-02-21T10:49:39;100285.69;;;12.51;46.50
52719;BME280;38616;42.140;24.760;2024-02-21T10:57:26;100274.00;;;11.88;48.03
52719;BME280;38616;42.140;24.760;2024-02-21T10:59:53;100258.50;;;12.04;48.21
52719;BME280;38616;42.140;24.760;2024-02-21T11:02:20;100253.31;;;12.23;46.61
52719;BME280;38616;42.140;24.760;2024-02-21T11:04:49;100245.41;;;12.11;47.02
52719;BME280;38616;42.140;24.760;2024-02-21T11:07:22;100244.25;;;12.49;46.94
52719;BME280;38616;42.140;24.760;2024-02-21T11:09:51;100247.19;;;12.63;46.02
52719;BME280;38616;42.140;24.760;2024-02-21T11:12:21;100246.16;;;12.43;46.48
52719;BME280;38616;42.140;24.760;2024-02-21T11:14:47;100239.56;;;12.60;46.04
52719;BME280;38616;42.140;24.760;2024-02-21T11:17:16;100242.19;;;12.91;45.50
52719;BME280;38616;42.140;24.760;2024-02-21T11:19:48;100235.06;;;12.95;45.29
52719;BME280;38616;42.140;24.760;2024-02-21T11:22:18;100232.94;;;12.86;44.15
52719;BME280;38616;42.140;24.760;2024-02-21T11:24:44;100234.47;;;13.08;44.05
52719;BME280;38616;42.140;24.760;2024-02-21T11:27:12;100234.56;;;12.88;44.17
52719;BME280;38616;42.140;24.760;2024-02-21T11:29:46;100234.50;;;13.03;44.34
52719;BME280;38616;42.140;24.760;2024-02-21T11:32:16;100211.91;;;12.87;44.58
52719;BME280;38616;42.140;24.760;2024-02-21T11:34:54;100218.47;;;13.31;44.31
52719;BME280;38616;42.140;24.760;2024-02-21T11:37:19;100220.63;;;13.34;44.26
52719;BME280;38616;42.140;24.760;2024-02-21T11:39:44;100219.75;;;13.49;43.98
52719;BME280;38616;42.140;24.760;2024-02-21T11:42:10;100222.09;;;13.21;44.27
52719;BME280;38616;42.140;24.760;2024-02-21T11:44:38;100220.88;;;12.98;43.78
52719;BME280;38616;42.140;24.760;2024-02-21T11:47:05;100213.50;;;12.98;43.49
52719;BME280;38616;42.140;24.760;2024-02-21T11:49:31;100210.38;;;13.21;43.63
52719;BME280;38616;42.140;24.760;2024-02-21T11:52:00;100218.72;;;12.95;42.43
52719;BME280;38616;42.140;24.760;2024-02-21T11:54:27;100205.56;;;13.07;42.54
52719;BME280;38616;42.140;24.760;2024-02-21T11:56:53;100207.75;;;13.05;42.66
52719;BME280;38616;42.140;24.760;2024-02-21T11:59:19;100199.91;;;12.88;43.38
52719;BME280;38616;42.140;24.760;2024-02-21T12:01:44;100205.06;;;12.95;43.09
52719;BME280;38616;42.140;24.760;2024-02-21T12:04:10;100195.34;;;13.23;42.59
52719;BME280;38616;42.140;24.760;2024-02-21T12:06:36;100191.69;;;13.43;42.05
52719;BME280;38616;42.140;24.760;2024-02-21T12:09:01;100191.81;;;13.63;41.79
52719;BME280;38616;42.140;24.760;2024-02-21T12:11:27;100178.31;;;13.77;41.17
52719;BME280;38616;42.140;24.760;2024-02-21T12:14:02;100188.31;;;13.57;41.18
52719;BME280;38616;42.140;24.760;2024-02-21T12:16:30;100186.06;;;12.79;42.78
52719;BME280;38616;42.140;24.760;2024-02-21T12:18:56;100181.25;;;13.11;42.39
52719;BME280;38616;42.140;24.760;2024-02-21T12:21:26;100179.19;;;13.32;42.03
52719;BME280;38616;42.140;24.760;2024-02-21T12:23:54;100175.25;;;13.49;41.45
52719;BME280;38616;42.140;24.760;2024-02-21T12:26:22;100170.72;;;13.34;41.32
52719;BME280;38616;42.140;24.760;2024-02-21T12:28:47;100161.97;;;13.42;41.51
52719;BME280;38616;42.140;24.760;2024-02-21T12:31:13;100165.50;;;13.37;41.18
52719;BME280;38616;42.140;24.760;2024-02-21T12:33:39;100156.72;;;13.45;41.14
52719;BME280;38616;42.140;24.760;2024-02-21T12:36:05;100156.16;;;13.49;41.10
52719;BME280;38616;42.140;24.760;2024-02-21T12:38:31;100141.28;;;13.65;40.14
52719;BME280;38616;42.140;24.760;2024-02-21T12:40:56;100146.38;;;13.72;39.97
52719;BME280;38616;42.140;24.760;2024-02-21T12:43:26;100141.13;;;13.81;39.59
52719;BME280;38616;42.140;24.760;2024-02-21T12:45:51;100128.25;;;14.11;39.25
52719;BME280;38616;42.140;24.760;2024-02-21T12:48:19;100129.41;;;14.04;39.28
52719;BME280;38616;42.140;24.760;2024-02-21T12:50:49;100128.63;;;13.99;39.73